To NAV CANADA Home Page Login to a new session Search on AWWS site Disclaimer Vers la page française équivalente Tips FAQ What's new on the site To the Forecasts and Observations / NOTAM section To "File a Flight Plan" website Publications and other links Update of the User's profile FIC Telephone Numbers My Weather Data Folder Route Weather Data Regional Weather Data Local Weather Data To the Forecasts and Observations / NOTAM section
Request Generated 11/13/2018 at 18:04:36 UTC . Weather information available at that time is displayed.

METAR/TAF

GASPE (MICHEL-POULIOT)/QC    

METAR CYGP 131800Z 10004KT 15SM OVC070 M02/M07 A3015 RMK AS8 SLP212=
METAR CYGP 131700Z 10004KT 060V130 15SM OVC080 M02/M09 A3017 RMK AS8 PRESFR SLP220=
METAR CYGP 131600Z 00000KT 15SM SCT070 OVC140 M03/M09 A3023 RMK AS4AS4 PRESRR SLP239=

TAF CYGP 131338Z 1314/1402 VRB03KT P6SM BKN140
FM131700 13008KT P6SM SCT020 OVC080 TEMPO 1317/1319 6SM -SN
FM131900 13008KT 6SM -SN OVC050 TEMPO 1319/1323 3SM -SN OVC020
PROB30 1319/1323 21/2SM -SN BKN012 OVC025
FM132300 12010G20KT 2SM -SN OVC010 PROB30 1323/1402 3/4SM -SN
RMK NXT FCST BY 132000Z=
Your time UTC time
Weather data provided by Environment Canada and NAV CANADA